sensor_id;sensor_type;location;lat;lon;timestamp;P1;durP1;ratioP1;P2;durP2;ratioP2
22904;SDS011;11619;50.140;8.518;2022-12-11T00:00:01;25.77;;;18.75;;
22904;SDS011;11619;50.140;8.518;2022-12-11T00:02:28;26.15;;;20.25;;
22904;SDS011;11619;50.140;8.518;2022-12-11T00:04:55;31.85;;;20.55;;
22904;SDS011;11619;50.140;8.518;2022-12-11T00:07:21;26.67;;;20.02;;
22904;SDS011;11619;50.140;8.518;2022-12-11T00:09:47;26.85;;;19.48;;
22904;SDS011;11619;50.140;8.518;2022-12-11T00:12:14;26.02;;;18.60;;
22904;SDS011;11619;50.140;8.518;2022-12-11T00:14:41;26.02;;;18.90;;
22904;SDS011;11619;50.140;8.518;2022-12-11T00:17:07;27.60;;;19.67;;
22904;SDS011;11619;50.140;8.518;2022-12-11T00:19:34;27.73;;;19.15;;
22904;SDS011;11619;50.140;8.518;2022-12-11T00:22:01;25.45;;;19.08;;
22904;SDS011;11619;50.140;8.518;2022-12-11T00:24:27;33.92;;;20.88;;
22904;SDS011;11619;50.140;8.518;2022-12-11T00:26:54;28.25;;;20.65;;
22904;SDS011;11619;50.140;8.518;2022-12-11T00:29:23;25.83;;;19.98;;
22904;SDS011;11619;50.140;8.518;2022-12-11T00:31:49;25.55;;;18.15;;
22904;SDS011;11619;50.140;8.518;2022-12-11T00:34:16;28.48;;;20.33;;
22904;SDS011;11619;50.140;8.518;2022-12-11T00:36:43;27.63;;;19.33;;
22904;SDS011;11619;50.140;8.518;2022-12-11T00:39:09;25.98;;;18.55;;
22904;SDS011;11619;50.140;8.518;2022-12-11T00:41:36;28.30;;;19.55;;
22904;SDS011;11619;50.140;8.518;2022-12-11T00:44:02;27.88;;;19.58;;
22904;SDS011;11619;50.140;8.518;2022-12-11T00:46:28;26.67;;;20.50;;
22904;SDS011;11619;50.140;8.518;2022-12-11T00:48:58;25.23;;;18.65;;
22904;SDS011;11619;50.140;8.518;2022-12-11T00:51:24;25.85;;;19.02;;
22904;SDS011;11619;50.140;8.518;2022-12-11T00:53:51;27.88;;;20.30;;
22904;SDS011;11619;50.140;8.518;2022-12-11T00:56:18;25.35;;;18.58;;
22904;SDS011;11619;50.140;8.518;2022-12-11T00:58:49;27.02;;;19.80;;
22904;SDS011;11619;50.140;8.518;2022-12-11T01:01:18;27.63;;;20.30;;
22904;SDS011;11619;50.140;8.518;2022-12-11T01:03:47;25.80;;;20.73;;
22904;SDS011;11619;50.140;8.518;2022-12-11T01:06:18;25.33;;;19.10;;
22904;SDS011;11619;50.140;8.518;2022-12-11T01:08:46;29.52;;;20.60;;
22904;SDS011;11619;50.140;8.518;2022-12-11T01:11:33;25.60;;;19.35;;
22904;SDS011;11619;50.140;8.518;2022-12-11T01:13:59;31.85;;;20.70;;
22904;SDS011;11619;50.140;8.518;2022-12-11T01:16:26;29.77;;;21.92;;
22904;SDS011;11619;50.140;8.518;2022-12-11T01:18:52;32.28;;;22.35;;
22904;SDS011;11619;50.140;8.518;2022-12-11T01:21:19;29.15;;;22.13;;
22904;SDS011;11619;50.140;8.518;2022-12-11T01:23:48;28.50;;;22.10;;
22904;SDS011;11619;50.140;8.518;2022-12-11T01:26:15;32.13;;;22.90;;
22904;SDS011;11619;50.140;8.518;2022-12-11T01:28:42;30.42;;;23.08;;
22904;SDS011;11619;50.140;8.518;2022-12-11T01:31:14;32.42;;;23.38;;
22904;SDS011;11619;50.140;8.518;2022-12-11T01:33:41;32.22;;;23.55;;
22904;SDS011;11619;50.140;8.518;2022-12-11T01:38:35;30.00;;;22.17;;
22904;SDS011;11619;50.140;8.518;2022-12-11T01:41:02;31.20;;;22.67;;
22904;SDS011;11619;50.140;8.518;2022-12-11T01:43:29;34.08;;;23.95;;
22904;SDS011;11619;50.140;8.518;2022-12-11T01:45:55;30.95;;;23.08;;
22904;SDS011;11619;50.140;8.518;2022-12-11T01:48:23;36.65;;;23.30;;
22904;SDS011;11619;50.140;8.518;2022-12-11T01:50:52;30.10;;;21.70;;
22904;SDS011;11619;50.140;8.518;2022-12-11T01:53:27;33.88;;;22.90;;
22904;SDS011;11619;50.140;8.518;2022-12-11T01:55:56;31.83;;;21.38;;
22904;SDS011;11619;50.140;8.518;2022-12-11T01:58:25;31.63;;;22.48;;
22904;SDS011;11619;50.140;8.518;2022-12-11T02:00:54;33.13;;;23.52;;
22904;SDS011;11619;50.140;8.518;2022-12-11T02:03:21;33.45;;;22.30;;
22904;SDS011;11619;50.140;8.518;2022-12-11T02:05:48;30.17;;;22.35;;
22904;SDS011;11619;50.140;8.518;2022-12-11T02:08:15;31.70;;;23.02;;
22904;SDS011;11619;50.140;8.518;2022-12-11T02:10:47;34.17;;;22.30;;
22904;SDS011;11619;50.140;8.518;2022-12-11T02:13:25;33.15;;;22.83;;
22904;SDS011;11619;50.140;8.518;2022-12-11T02:16:15;30.70;;;21.50;;
22904;SDS011;11619;50.140;8.518;2022-12-11T02:18:57;31.30;;;22.05;;
22904;SDS011;11619;50.140;8.518;2022-12-11T02:21:32;29.08;;;20.55;;
22904;SDS011;11619;50.140;8.518;2022-12-11T02:24:16;30.38;;;21.27;;
22904;SDS011;11619;50.140;8.518;2022-12-11T02:26:53;31.15;;;22.50;;
22904;SDS011;11619;50.140;8.518;2022-12-11T02:29:33;29.75;;;22.08;;
22904;SDS011;11619;50.140;8.518;2022-12-11T02:32:03;29.85;;;21.63;;
22904;SDS011;11619;50.140;8.518;2022-12-11T02:34:39;29.75;;;22.33;;
22904;SDS011;11619;50.140;8.518;2022-12-11T02:37:26;29.75;;;21.65;;
22904;SDS011;11619;50.140;8.518;2022-12-11T02:39:55;27.60;;;20.88;;
22904;SDS011;11619;50.140;8.518;2022-12-11T02:42:23;28.20;;;21.38;;
22904;SDS011;11619;50.140;8.518;2022-12-11T02:44:53;31.10;;;22.20;;
22904;SDS011;11619;50.140;8.518;2022-12-11T02:47:22;29.63;;;21.70;;
22904;SDS011;11619;50.140;8.518;2022-12-11T02:49:50;28.10;;;22.35;;
22904;SDS011;11619;50.140;8.518;2022-12-11T02:52:18;31.23;;;22.67;;
22904;SDS011;11619;50.140;8.518;2022-12-11T02:54:46;31.02;;;22.75;;
22904;SDS011;11619;50.140;8.518;2022-12-11T03:00:01;33.85;;;23.60;;
22904;SDS011;11619;50.140;8.518;2022-12-11T03:02:27;31.67;;;22.58;;
22904;SDS011;11619;50.140;8.518;2022-12-11T03:04:54;30.10;;;22.13;;
22904;SDS011;11619;50.140;8.518;2022-12-11T03:07:23;29.02;;;21.63;;
22904;SDS011;11619;50.140;8.518;2022-12-11T03:09:51;30.65;;;22.63;;
22904;SDS011;11619;50.140;8.518;2022-12-11T03:12:19;35.33;;;24.30;;
22904;SDS011;11619;50.140;8.518;2022-12-11T03:14:49;31.73;;;23.83;;
22904;SDS011;11619;50.140;8.518;2022-12-11T03:17:18;32.67;;;22.77;;
22904;SDS011;11619;50.140;8.518;2022-12-11T03:22:54;31.42;;;22.95;;
22904;SDS011;11619;50.140;8.518;2022-12-11T03:25:27;32.58;;;24.05;;
22904;SDS011;11619;50.140;8.518;2022-12-11T03:28:02;30.98;;;23.38;;
22904;SDS011;11619;50.140;8.518;2022-12-11T03:30:36;31.02;;;23.73;;
22904;SDS011;11619;50.140;8.518;2022-12-11T03:33:03;33.72;;;25.30;;
22904;SDS011;11619;50.140;8.518;2022-12-11T03:35:40;33.30;;;24.17;;
22904;SDS011;11619;50.140;8.518;2022-12-11T03:38:10;33.92;;;24.52;;
22904;SDS011;11619;50.140;8.518;2022-12-11T03:40:39;34.75;;;25.48;;
22904;SDS011;11619;50.140;8.518;2022-12-11T03:43:07;36.47;;;26.98;;
22904;SDS011;11619;50.140;8.518;2022-12-11T03:45:34;36.35;;;26.52;;
22904;SDS011;11619;50.140;8.518;2022-12-11T03:48:04;36.40;;;26.40;;
22904;SDS011;11619;50.140;8.518;2022-12-11T03:50:32;35.70;;;25.52;;
22904;SDS011;11619;50.140;8.518;2022-12-11T03:52:59;36.90;;;27.42;;
22904;SDS011;11619;50.140;8.518;2022-12-11T03:55:26;34.55;;;25.95;;
22904;SDS011;11619;50.140;8.518;2022-12-11T03:57:54;35.65;;;25.90;;
22904;SDS011;11619;50.140;8.518;2022-12-11T04:00:20;37.90;;;27.67;;
22904;SDS011;11619;50.140;8.518;2022-12-11T04:02:48;36.85;;;26.33;;
22904;SDS011;11619;50.140;8.518;2022-12-11T04:05:39;35.80;;;25.85;;
22904;SDS011;11619;50.140;8.518;2022-12-11T04:08:07;39.55;;;26.88;;
22904;SDS011;11619;50.140;8.518;2022-12-11T04:10:33;35.15;;;25.35;;
22904;SDS011;11619;50.140;8.518;2022-12-11T04:12:59;37.70;;;27.13;;
22904;SDS011;11619;50.140;8.518;2022-12-11T04:15:26;38.75;;;26.52;;
22904;SDS011;11619;50.140;8.518;2022-12-11T04:17:52;37.38;;;27.08;;
22904;SDS011;11619;50.140;8.518;2022-12-11T04:20:39;35.97;;;26.17;;
22904;SDS011;11619;50.140;8.518;2022-12-11T04:23:24;37.08;;;25.67;;
22904;SDS011;11619;50.140;8.518;2022-12-11T04:26:10;37.30;;;26.23;;
22904;SDS011;11619;50.140;8.518;2022-12-11T04:28:38;37.53;;;26.17;;
22904;SDS011;11619;50.140;8.518;2022-12-11T04:31:05;36.10;;;25.75;;
22904;SDS011;11619;50.140;8.518;2022-12-11T04:33:32;34.42;;;25.08;;
22904;SDS011;11619;50.140;8.518;2022-12-11T04:35:58;36.38;;;26.40;;
22904;SDS011;11619;50.140;8.518;2022-12-11T04:38:25;36.70;;;26.80;;
22904;SDS011;11619;50.140;8.518;2022-12-11T04:40:58;38.03;;;26.20;;
22904;SDS011;11619;50.140;8.518;2022-12-11T04:43:32;37.45;;;26.73;;
22904;SDS011;11619;50.140;8.518;2022-12-11T04:46:06;39.63;;;27.40;;
22904;SDS011;11619;50.140;8.518;2022-12-11T04:48:34;37.20;;;26.13;;
22904;SDS011;11619;50.140;8.518;2022-12-11T04:51:01;37.30;;;26.42;;
22904;SDS011;11619;50.140;8.518;2022-12-11T04:53:27;38.95;;;28.00;;
22904;SDS011;11619;50.140;8.518;2022-12-11T04:55:54;40.80;;;27.10;;
22904;SDS011;11619;50.140;8.518;2022-12-11T04:58:21;36.70;;;25.73;;
22904;SDS011;11619;50.140;8.518;2022-12-11T05:00:48;39.35;;;28.27;;
22904;SDS011;11619;50.140;8.518;2022-12-11T05:03:14;38.28;;;26.58;;
22904;SDS011;11619;50.140;8.518;2022-12-11T05:05:46;35.75;;;26.23;;
22904;SDS011;11619;50.140;8.518;2022-12-11T05:08:16;36.65;;;26.35;;
22904;SDS011;11619;50.140;8.518;2022-12-11T05:10:44;35.63;;;26.50;;
22904;SDS011;11619;50.140;8.518;2022-12-11T05:13:15;36.03;;;25.50;;
22904;SDS011;11619;50.140;8.518;2022-12-11T05:15:41;36.50;;;26.13;;
22904;SDS011;11619;50.140;8.518;2022-12-11T05:18:08;35.58;;;26.30;;
22904;SDS011;11619;50.140;8.518;2022-12-11T05:20:34;37.60;;;26.45;;
22904;SDS011;11619;50.140;8.518;2022-12-11T05:23:00;35.35;;;24.63;;
22904;SDS011;11619;50.140;8.518;2022-12-11T05:25:27;37.90;;;26.65;;
22904;SDS011;11619;50.140;8.518;2022-12-11T05:27:53;34.80;;;25.88;;
22904;SDS011;11619;50.140;8.518;2022-12-11T05:30:20;36.88;;;26.00;;
22904;SDS011;11619;50.140;8.518;2022-12-11T05:32:46;40.80;;;27.48;;
22904;SDS011;11619;50.140;8.518;2022-12-11T05:35:12;38.70;;;26.95;;
22904;SDS011;11619;50.140;8.518;2022-12-11T05:37:39;36.08;;;25.58;;
22904;SDS011;11619;50.140;8.518;2022-12-11T05:40:06;34.28;;;25.92;;
22904;SDS011;11619;50.140;8.518;2022-12-11T05:42:33;38.85;;;27.23;;
22904;SDS011;11619;50.140;8.518;2022-12-11T05:44:59;35.80;;;24.95;;
22904;SDS011;11619;50.140;8.518;2022-12-11T05:47:26;36.38;;;26.10;;
22904;SDS011;11619;50.140;8.518;2022-12-11T05:49:52;35.95;;;26.02;;
22904;SDS011;11619;50.140;8.518;2022-12-11T05:52:18;39.60;;;26.35;;
22904;SDS011;11619;50.140;8.518;2022-12-11T05:54:46;40.22;;;28.15;;
22904;SDS011;11619;50.140;8.518;2022-12-11T05:57:14;41.40;;;27.25;;
22904;SDS011;11619;50.140;8.518;2022-12-11T05:59:40;39.80;;;27.85;;
22904;SDS011;11619;50.140;8.518;2022-12-11T06:02:07;42.65;;;28.15;;
22904;SDS011;11619;50.140;8.518;2022-12-11T06:04:33;40.80;;;28.45;;
22904;SDS011;11619;50.140;8.518;2022-12-11T06:07:00;44.13;;;29.40;;
22904;SDS011;11619;50.140;8.518;2022-12-11T06:09:26;40.90;;;28.48;;
22904;SDS011;11619;50.140;8.518;2022-12-11T06:11:53;40.20;;;27.70;;
22904;SDS011;11619;50.140;8.518;2022-12-11T06:14:19;42.65;;;28.48;;
22904;SDS011;11619;50.140;8.518;2022-12-11T06:16:45;42.45;;;27.52;;
22904;SDS011;11619;50.140;8.518;2022-12-11T06:19:13;40.45;;;27.38;;
22904;SDS011;11619;50.140;8.518;2022-12-11T06:21:40;36.90;;;26.77;;
22904;SDS011;11619;50.140;8.518;2022-12-11T06:24:09;39.05;;;27.40;;
22904;SDS011;11619;50.140;8.518;2022-12-11T06:26:35;42.00;;;27.67;;
22904;SDS011;11619;50.140;8.518;2022-12-11T06:29:02;38.65;;;25.88;;
22904;SDS011;11619;50.140;8.518;2022-12-11T06:31:34;39.42;;;27.73;;
22904;SDS011;11619;50.140;8.518;2022-12-11T06:34:00;43.72;;;29.10;;
22904;SDS011;11619;50.140;8.518;2022-12-11T06:36:27;39.88;;;27.67;;
22904;SDS011;11619;50.140;8.518;2022-12-11T06:38:53;40.00;;;28.05;;
22904;SDS011;11619;50.140;8.518;2022-12-11T06:41:20;38.33;;;27.05;;
22904;SDS011;11619;50.140;8.518;2022-12-11T06:43:46;41.38;;;27.38;;
22904;SDS011;11619;50.140;8.518;2022-12-11T06:46:17;41.20;;;27.95;;
22904;SDS011;11619;50.140;8.518;2022-12-11T06:48:44;37.90;;;26.30;;
22904;SDS011;11619;50.140;8.518;2022-12-11T06:51:12;38.47;;;26.45;;
22904;SDS011;11619;50.140;8.518;2022-12-11T06:53:40;40.00;;;27.88;;
22904;SDS011;11619;50.140;8.518;2022-12-11T06:56:08;40.65;;;26.77;;
22904;SDS011;11619;50.140;8.518;2022-12-11T06:58:36;44.28;;;28.40;;
22904;SDS011;11619;50.140;8.518;2022-12-11T07:01:03;37.78;;;27.33;;
22904;SDS011;11619;50.140;8.518;2022-12-11T07:03:30;42.58;;;28.52;;
22904;SDS011;11619;50.140;8.518;2022-12-11T07:06:02;47.80;;;31.55;;
22904;SDS011;11619;50.140;8.518;2022-12-11T07:08:29;48.08;;;32.33;;
22904;SDS011;11619;50.140;8.518;2022-12-11T07:11:03;55.38;;;34.35;;
22904;SDS011;11619;50.140;8.518;2022-12-11T07:13:31;51.58;;;34.28;;
22904;SDS011;11619;50.140;8.518;2022-12-11T07:15:58;52.30;;;33.00;;
22904;SDS011;11619;50.140;8.518;2022-12-11T07:18:29;48.03;;;31.30;;
22904;SDS011;11619;50.140;8.518;2022-12-11T07:20:57;51.38;;;33.90;;
22904;SDS011;11619;50.140;8.518;2022-12-11T07:23:26;52.67;;;32.33;;
22904;SDS011;11619;50.140;8.518;2022-12-11T07:25:53;51.22;;;34.30;;
22904;SDS011;11619;50.140;8.518;2022-12-11T07:28:20;53.47;;;34.08;;
22904;SDS011;11619;50.140;8.518;2022-12-11T07:30:47;51.97;;;33.78;;
22904;SDS011;11619;50.140;8.518;2022-12-11T07:33:13;59.45;;;36.55;;
22904;SDS011;11619;50.140;8.518;2022-12-11T07:35:40;58.92;;;36.95;;
22904;SDS011;11619;50.140;8.518;2022-12-11T07:38:07;54.38;;;34.78;;
22904;SDS011;11619;50.140;8.518;2022-12-11T07:40:33;52.67;;;34.22;;
22904;SDS011;11619;50.140;8.518;2022-12-11T07:43:00;56.97;;;36.17;;
22904;SDS011;11619;50.140;8.518;2022-12-11T07:45:26;60.53;;;36.55;;
22904;SDS011;11619;50.140;8.518;2022-12-11T07:47:53;57.45;;;35.13;;
22904;SDS011;11619;50.140;8.518;2022-12-11T07:50:19;53.42;;;35.65;;
22904;SDS011;11619;50.140;8.518;2022-12-11T07:52:46;58.00;;;35.92;;
22904;SDS011;11619;50.140;8.518;2022-12-11T07:55:13;49.10;;;33.15;;
22904;SDS011;11619;50.140;8.518;2022-12-11T07:57:39;55.03;;;34.50;;
22904;SDS011;11619;50.140;8.518;2022-12-11T08:00:06;57.85;;;37.15;;
22904;SDS011;11619;50.140;8.518;2022-12-11T08:02:32;57.75;;;36.65;;
22904;SDS011;11619;50.140;8.518;2022-12-11T08:05:02;54.67;;;37.05;;
22904;SDS011;11619;50.140;8.518;2022-12-11T08:07:29;54.20;;;36.90;;
22904;SDS011;11619;50.140;8.518;2022-12-11T08:09:55;65.82;;;33.42;;
22904;SDS011;11619;50.140;8.518;2022-12-11T08:12:22;84.30;;;43.83;;
22904;SDS011;11619;50.140;8.518;2022-12-11T08:14:48;85.65;;;51.72;;
22904;SDS011;11619;50.140;8.518;2022-12-11T08:17:14;59.25;;;42.05;;
22904;SDS011;11619;50.140;8.518;2022-12-11T08:19:41;53.03;;;38.50;;
22904;SDS011;11619;50.140;8.518;2022-12-11T08:22:07;46.20;;;33.63;;
22904;SDS011;11619;50.140;8.518;2022-12-11T08:24:34;45.22;;;32.42;;
22904;SDS011;11619;50.140;8.518;2022-12-11T08:27:00;46.60;;;34.63;;
22904;SDS011;11619;50.140;8.518;2022-12-11T08:29:27;48.30;;;33.42;;
22904;SDS011;11619;50.140;8.518;2022-12-11T08:31:53;47.40;;;33.95;;
22904;SDS011;11619;50.140;8.518;2022-12-11T08:34:20;49.47;;;33.90;;
22904;SDS011;11619;50.140;8.518;2022-12-11T08:36:46;44.03;;;31.92;;
22904;SDS011;11619;50.140;8.518;2022-12-11T08:39:13;45.67;;;31.75;;
22904;SDS011;11619;50.140;8.518;2022-12-11T08:41:39;44.15;;;30.30;;
22904;SDS011;11619;50.140;8.518;2022-12-11T08:44:09;42.13;;;31.27;;
22904;SDS011;11619;50.140;8.518;2022-12-11T08:46:41;46.92;;;32.45;;
22904;SDS011;11619;50.140;8.518;2022-12-11T08:49:08;41.75;;;30.92;;
22904;SDS011;11619;50.140;8.518;2022-12-11T08:51:35;46.47;;;32.90;;
22904;SDS011;11619;50.140;8.518;2022-12-11T08:54:01;47.33;;;31.75;;
22904;SDS011;11619;50.140;8.518;2022-12-11T08:56:28;44.83;;;31.23;;
22904;SDS011;11619;50.140;8.518;2022-12-11T08:58:55;46.90;;;32.72;;
22904;SDS011;11619;50.140;8.518;2022-12-11T09:01:22;43.88;;;32.47;;
22904;SDS011;11619;50.140;8.518;2022-12-11T09:03:51;44.25;;;31.80;;
22904;SDS011;11619;50.140;8.518;2022-12-11T09:06:19;47.45;;;32.90;;
22904;SDS011;11619;50.140;8.518;2022-12-11T09:08:47;46.80;;;32.08;;
22904;SDS011;11619;50.140;8.518;2022-12-11T09:11:19;44.40;;;31.50;;
22904;SDS011;11619;50.140;8.518;2022-12-11T09:13:47;47.00;;;33.25;;
22904;SDS011;11619;50.140;8.518;2022-12-11T09:16:14;47.78;;;32.72;;
22904;SDS011;11619;50.140;8.518;2022-12-11T09:18:42;50.92;;;33.60;;
22904;SDS011;11619;50.140;8.518;2022-12-11T09:21:11;54.85;;;34.03;;
22904;SDS011;11619;50.140;8.518;2022-12-11T09:23:39;96.35;;;48.17;;
22904;SDS011;11619;50.140;8.518;2022-12-11T09:26:06;103.38;;;52.00;;
22904;SDS011;11619;50.140;8.518;2022-12-11T09:28:36;129.23;;;68.80;;
22904;SDS011;11619;50.140;8.518;2022-12-11T09:31:12;84.53;;;51.50;;
22904;SDS011;11619;50.140;8.518;2022-12-11T09:33:49;89.97;;;54.78;;
22904;SDS011;11619;50.140;8.518;2022-12-11T09:36:16;67.70;;;46.70;;
22904;SDS011;11619;50.140;8.518;2022-12-11T09:38:43;64.38;;;44.25;;
22904;SDS011;11619;50.140;8.518;2022-12-11T09:46:23;48.70;;;34.65;;
22904;SDS011;11619;50.140;8.518;2022-12-11T09:48:57;46.45;;;34.78;;
22904;SDS011;11619;50.140;8.518;2022-12-11T09:51:29;45.85;;;34.35;;
22904;SDS011;11619;50.140;8.518;2022-12-11T09:54:08;40.03;;;31.13;;
22904;SDS011;11619;50.140;8.518;2022-12-11T09:57:21;38.88;;;30.60;;
22904;SDS011;11619;50.140;8.518;2022-12-11T10:02:01;40.22;;;30.85;;
22904;SDS011;11619;50.140;8.518;2022-12-11T10:13:05;40.47;;;30.52;;
22904;SDS011;11619;50.140;8.518;2022-12-11T10:18:23;41.30;;;30.90;;
22904;SDS011;11619;50.140;8.518;2022-12-11T10:20:51;39.53;;;29.92;;
22904;SDS011;11619;50.140;8.518;2022-12-11T10:23:20;36.72;;;28.38;;
22904;SDS011;11619;50.140;8.518;2022-12-11T10:25:56;39.63;;;29.52;;
22904;SDS011;11619;50.140;8.518;2022-12-11T10:28:25;40.33;;;29.27;;
22904;SDS011;11619;50.140;8.518;2022-12-11T10:30:56;42.70;;;31.50;;
22904;SDS011;11619;50.140;8.518;2022-12-11T10:36:06;42.50;;;30.63;;
22904;SDS011;11619;50.140;8.518;2022-12-11T10:38:41;46.97;;;32.38;;
22904;SDS011;11619;50.140;8.518;2022-12-11T10:43:40;43.45;;;31.48;;
22904;SDS011;11619;50.140;8.518;2022-12-11T10:46:18;42.85;;;31.40;;
22904;SDS011;11619;50.140;8.518;2022-12-11T10:48:48;42.15;;;30.65;;
22904;SDS011;11619;50.140;8.518;2022-12-11T10:51:22;39.78;;;30.55;;
22904;SDS011;11619;50.140;8.518;2022-12-11T10:53:52;41.58;;;30.67;;
22904;SDS011;11619;50.140;8.518;2022-12-11T10:56:27;41.08;;;29.65;;
22904;SDS011;11619;50.140;8.518;2022-12-11T10:58:55;37.95;;;28.67;;
22904;SDS011;11619;50.140;8.518;2022-12-11T11:01:23;38.70;;;28.48;;
22904;SDS011;11619;50.140;8.518;2022-12-11T11:04:04;37.95;;;28.08;;
22904;SDS011;11619;50.140;8.518;2022-12-11T11:06:39;38.25;;;29.48;;
22904;SDS011;11619;50.140;8.518;2022-12-11T11:09:21;38.25;;;28.10;;
22904;SDS011;11619;50.140;8.518;2022-12-11T11:11:56;44.33;;;29.80;;
22904;SDS011;11619;50.140;8.518;2022-12-11T11:14:22;43.30;;;31.38;;
22904;SDS011;11619;50.140;8.518;2022-12-11T11:16:50;46.72;;;31.60;;
22904;SDS011;11619;50.140;8.518;2022-12-11T11:21:56;48.70;;;34.08;;
22904;SDS011;11619;50.140;8.518;2022-12-11T11:27:10;48.63;;;34.45;;
22904;SDS011;11619;50.140;8.518;2022-12-11T11:29:39;51.08;;;34.95;;
22904;SDS011;11619;50.140;8.518;2022-12-11T11:32:22;46.33;;;34.55;;
22904;SDS011;11619;50.140;8.518;2022-12-11T11:37:40;52.58;;;36.00;;
22904;SDS011;11619;50.140;8.518;2022-12-11T11:40:21;56.13;;;36.92;;
22904;SDS011;11619;50.140;8.518;2022-12-11T11:42:53;51.10;;;34.33;;
22904;SDS011;11619;50.140;8.518;2022-12-11T11:45:38;51.78;;;36.30;;
22904;SDS011;11619;50.140;8.518;2022-12-11T11:48:12;51.13;;;36.08;;
22904;SDS011;11619;50.140;8.518;2022-12-11T11:50:51;52.30;;;35.10;;
22904;SDS011;11619;50.140;8.518;2022-12-11T11:53:24;53.63;;;36.10;;
22904;SDS011;11619;50.140;8.518;2022-12-11T11:56:02;56.65;;;37.47;;
22904;SDS011;11619;50.140;8.518;2022-12-11T11:58:40;54.03;;;37.20;;
22904;SDS011;11619;50.140;8.518;2022-12-11T12:01:18;52.92;;;36.38;;
22904;SDS011;11619;50.140;8.518;2022-12-11T12:03:45;55.58;;;35.83;;
22904;SDS011;11619;50.140;8.518;2022-12-11T12:06:16;60.33;;;37.63;;
22904;SDS011;11619;50.140;8.518;2022-12-11T12:14:30;65.28;;;38.67;;
22904;SDS011;11619;50.140;8.518;2022-12-11T12:17:29;56.42;;;37.38;;
22904;SDS011;11619;50.140;8.518;2022-12-11T12:20:18;53.08;;;37.30;;
22904;SDS011;11619;50.140;8.518;2022-12-11T12:28:37;53.42;;;35.25;;
22904;SDS011;11619;50.140;8.518;2022-12-11T12:36:36;47.55;;;31.10;;
22904;SDS011;11619;50.140;8.518;2022-12-11T12:44:36;46.75;;;30.85;;
22904;SDS011;11619;50.140;8.518;2022-12-11T12:47:09;45.00;;;28.55;;
22904;SDS011;11619;50.140;8.518;2022-12-11T12:52:12;44.95;;;29.85;;
22904;SDS011;11619;50.140;8.518;2022-12-11T12:54:40;48.47;;;29.17;;
22904;SDS011;11619;50.140;8.518;2022-12-11T12:57:07;45.40;;;29.42;;
22904;SDS011;11619;50.140;8.518;2022-12-11T12:59:34;45.55;;;28.48;;
22904;SDS011;11619;50.140;8.518;2022-12-11T13:02:01;43.50;;;27.52;;
22904;SDS011;11619;50.140;8.518;2022-12-11T13:04:38;44.15;;;27.02;;
22904;SDS011;11619;50.140;8.518;2022-12-11T13:07:27;39.33;;;25.40;;
22904;SDS011;11619;50.140;8.518;2022-12-11T13:09:56;39.75;;;23.90;;
22904;SDS011;11619;50.140;8.518;2022-12-11T13:12:32;38.65;;;25.65;;
22904;SDS011;11619;50.140;8.518;2022-12-11T13:15:26;41.97;;;25.98;;
22904;SDS011;11619;50.140;8.518;2022-12-11T13:17:59;43.78;;;27.17;;
22904;SDS011;11619;50.140;8.518;2022-12-11T13:20:27;39.42;;;25.00;;
22904;SDS011;11619;50.140;8.518;2022-12-11T13:25:32;37.28;;;22.35;;
22904;SDS011;11619;50.140;8.518;2022-12-11T13:33:44;32.22;;;19.77;;
22904;SDS011;11619;50.140;8.518;2022-12-11T13:38:59;35.65;;;20.88;;
22904;SDS011;11619;50.140;8.518;2022-12-11T13:41:29;32.45;;;20.23;;
22904;SDS011;11619;50.140;8.518;2022-12-11T13:43:58;35.85;;;20.55;;
22904;SDS011;11619;50.140;8.518;2022-12-11T13:46:28;32.35;;;20.23;;
22904;SDS011;11619;50.140;8.518;2022-12-11T13:48:58;31.63;;;19.98;;
22904;SDS011;11619;50.140;8.518;2022-12-11T13:51:28;29.95;;;20.50;;
22904;SDS011;11619;50.140;8.518;2022-12-11T13:54:30;30.50;;;19.10;;
22904;SDS011;11619;50.140;8.518;2022-12-11T13:56:55;33.53;;;21.13;;
22904;SDS011;11619;50.140;8.518;2022-12-11T13:59:23;32.63;;;20.95;;
22904;SDS011;11619;50.140;8.518;2022-12-11T14:04:44;32.55;;;20.58;;
22904;SDS011;11619;50.140;8.518;2022-12-11T14:07:14;35.17;;;21.15;;
22904;SDS011;11619;50.140;8.518;2022-12-11T14:09:43;35.47;;;23.08;;
22904;SDS011;11619;50.140;8.518;2022-12-11T14:12:17;35.05;;;22.35;;
22904;SDS011;11619;50.140;8.518;2022-12-11T14:14:46;34.95;;;21.75;;
22904;SDS011;11619;50.140;8.518;2022-12-11T14:17:16;35.22;;;21.85;;
22904;SDS011;11619;50.140;8.518;2022-12-11T14:19:47;33.47;;;21.33;;
22904;SDS011;11619;50.140;8.518;2022-12-11T14:22:17;33.58;;;21.25;;
22904;SDS011;11619;50.140;8.518;2022-12-11T14:24:53;36.05;;;22.17;;
22904;SDS011;11619;50.140;8.518;2022-12-11T14:27:21;34.55;;;20.58;;
22904;SDS011;11619;50.140;8.518;2022-12-11T14:29:48;35.30;;;21.10;;
22904;SDS011;11619;50.140;8.518;2022-12-11T14:32:18;33.28;;;21.17;;
22904;SDS011;11619;50.140;8.518;2022-12-11T14:34:49;37.15;;;20.38;;
22904;SDS011;11619;50.140;8.518;2022-12-11T14:37:16;81.60;;;36.05;;
22904;SDS011;11619;50.140;8.518;2022-12-11T14:42:26;36.90;;;23.95;;
22904;SDS011;11619;50.140;8.518;2022-12-11T14:44:57;35.60;;;22.58;;
22904;SDS011;11619;50.140;8.518;2022-12-11T14:47:37;31.48;;;20.27;;
22904;SDS011;11619;50.140;8.518;2022-12-11T14:50:05;31.15;;;19.23;;
22904;SDS011;11619;50.140;8.518;2022-12-11T14:52:47;30.45;;;20.45;;
22904;SDS011;11619;50.140;8.518;2022-12-11T14:55:20;27.85;;;19.45;;
22904;SDS011;11619;50.140;8.518;2022-12-11T14:57:50;30.77;;;19.17;;
22904;SDS011;11619;50.140;8.518;2022-12-11T15:00:21;28.17;;;19.55;;
22904;SDS011;11619;50.140;8.518;2022-12-11T15:03:17;32.38;;;20.23;;
22904;SDS011;11619;50.140;8.518;2022-12-11T15:05:48;28.58;;;18.52;;
22904;SDS011;11619;50.140;8.518;2022-12-11T15:08:17;29.02;;;20.83;;
22904;SDS011;11619;50.140;8.518;2022-12-11T15:13:38;30.08;;;19.45;;
22904;SDS011;11619;50.140;8.518;2022-12-11T15:16:13;30.25;;;20.67;;
22904;SDS011;11619;50.140;8.518;2022-12-11T15:18:40;29.77;;;20.27;;
22904;SDS011;11619;50.140;8.518;2022-12-11T15:21:08;22.70;;;16.60;;
22904;SDS011;11619;50.140;8.518;2022-12-11T15:23:48;29.15;;;18.17;;
22904;SDS011;11619;50.140;8.518;2022-12-11T15:26:19;33.08;;;21.38;;
22904;SDS011;11619;50.140;8.518;2022-12-11T15:28:46;37.42;;;23.50;;
22904;SDS011;11619;50.140;8.518;2022-12-11T15:31:26;34.67;;;23.10;;
22904;SDS011;11619;50.140;8.518;2022-12-11T15:33:54;35.15;;;21.92;;
22904;SDS011;11619;50.140;8.518;2022-12-11T15:36:24;35.15;;;22.48;;
22904;SDS011;11619;50.140;8.518;2022-12-11T15:38:59;33.97;;;21.58;;
22904;SDS011;11619;50.140;8.518;2022-12-11T15:41:26;31.55;;;20.00;;
22904;SDS011;11619;50.140;8.518;2022-12-11T15:43:54;32.25;;;20.88;;
22904;SDS011;11619;50.140;8.518;2022-12-11T15:46:24;33.00;;;21.40;;
22904;SDS011;11619;50.140;8.518;2022-12-11T15:48:51;34.08;;;22.70;;
22904;SDS011;11619;50.140;8.518;2022-12-11T15:51:17;36.15;;;21.98;;
22904;SDS011;11619;50.140;8.518;2022-12-11T15:53:43;30.70;;;20.33;;
22904;SDS011;11619;50.140;8.518;2022-12-11T15:56:16;33.75;;;21.17;;
22904;SDS011;11619;50.140;8.518;2022-12-11T15:58:43;32.83;;;22.25;;
22904;SDS011;11619;50.140;8.518;2022-12-11T16:01:10;33.20;;;21.23;;